Rozet, Wyoming
Current Conditions -  °F | °C
As of 8:53 AM on Friday 24 Oct 2014 (Local Time) from KGCC Reporting Station
Clear Clear  
Wind Chill: 54°   Ceiling: Unl
Heat Index: 54°   Visibility: 10mi
Dew Point: 29°   Wind: 0mph
Humidity: 38%   Direction: NA
Pressure: 30.04"   Gusts: NA
Location:  44.28°N, 105.21°W
Report Text: KGCC 241453Z AUTO 00000KT 10SM CLR 12/M02 A3004 RMK AO2 SLP158 T01221017 53019
Loading
Personal Weather Stations






























Interactive Weather Map
Tropical Storm Tracking
New forecast layout! Learn more

10-Day Weather Forecast

Advertisements
Track Severe Weather on mobile